Time;durP1;ratioP1;P1;durP2;ratioP2;P2;SDS_P1;SDS_P2;PMS_P1;PMS_P2;Temp;Humidity;BMP_temperature;BMP_pressure;BME280_temperature;BME280_humidity;BME280_pressure;Samples;Min_cycle;Max_cycle;Signal;HPM_P1;HPM_P2
2021/08/23 00:00:05;;;;;;;2.47;1.73;;;;;;;;;;5089209;28;20063;-63
2021/08/23 00:02:31;;;;;;;3.47;1.58;;;;;;;;;;5089745;28;20039;-61
2021/08/23 00:04:56;;;;;;;2.60;1.70;;;;;;;;;;5086193;28;20032;-64
2021/08/23 00:07:21;;;;;;;2.83;1.38;;;;;;;;;;5067556;28;20025;-64
2021/08/23 00:09:47;;;;;;;3.35;1.38;;;;;;;;;;5069045;28;20102;-60
2021/08/23 00:12:13;;;;;;;1.75;1.30;;;;;;;;;;5068778;28;20032;-64
2021/08/23 00:14:38;;;;;;;2.00;1.30;;;;;;;;;;5068343;28;20473;-61
2021/08/23 00:17:03;;;;;;;3.28;1.50;;;;;;;;;;5067861;28;20103;-61
2021/08/23 00:19:31;;;;;;;2.20;1.50;;;;;;;;;;5070878;28;20405;-63
2021/08/23 00:22:19;;;;;;;2.47;1.38;;;;;;;;;;5068049;28;20064;-63
2021/08/23 00:24:44;;;;;;;3.08;1.50;;;;;;;;;;5067765;28;20027;-65
2021/08/23 00:27:10;;;;;;;4.85;1.63;;;;;;;;;;5072084;28;20028;-61
2021/08/23 00:29:35;;;;;;;2.20;1.52;;;;;;;;;;5086352;28;20042;-61
2021/08/23 00:32:00;;;;;;;2.60;1.30;;;;;;;;;;5087595;28;20032;-62
2021/08/23 00:34:26;;;;;;;4.78;1.63;;;;;;;;;;5088029;28;20138;-61
2021/08/23 00:36:51;;;;;;;4.05;1.42;;;;;;;;;;5068574;28;20121;-63
2021/08/23 00:39:16;;;;;;;4.50;1.52;;;;;;;;;;5067292;28;20024;-61
2021/08/23 00:41:42;;;;;;;3.90;1.70;;;;;;;;;;5065413;28;20063;-63
2021/08/23 00:44:09;;;;;;;3.38;1.50;;;;;;;;;;5070094;28;20020;-65
2021/08/23 00:46:37;;;;;;;3.93;1.70;;;;;;;;;;5068200;28;20493;-60
2021/08/23 00:49:04;;;;;;;4.28;1.67;;;;;;;;;;5067863;28;20031;-63
2021/08/23 00:51:29;;;;;;;4.60;1.73;;;;;;;;;;5068004;28;20103;-63
2021/08/23 00:53:55;;;;;;;1.95;1.38;;;;;;;;;;5066805;28;20119;-63
2021/08/23 00:56:21;;;;;;;2.33;1.35;;;;;;;;;;5067067;28;20029;-64
2021/08/23 00:58:47;;;;;;;3.85;1.60;;;;;;;;;;5087609;28;20031;-61
2021/08/23 01:01:27;;;;;;;1.50;1.17;;;;;;;;;;5083340;28;20038;-63
2021/08/23 01:04:03;;;;;;;2.72;1.60;;;;;;;;;;5087451;28;20027;-61
2021/08/23 01:06:30;;;;;;;2.72;1.30;;;;;;;;;;5071905;28;20040;-63
2021/08/23 01:09:04;;;;;;;2.95;1.42;;;;;;;;;;5069681;28;20038;-63
2021/08/23 01:11:35;;;;;;;2.08;1.27;;;;;;;;;;5067335;28;20501;-61
2021/08/23 01:14:02;;;;;;;3.95;1.73;;;;;;;;;;5066401;28;20624;-62
2021/08/23 01:16:28;;;;;;;2.08;1.30;;;;;;;;;;5067125;28;20060;-61
2021/08/23 01:18:54;;;;;;;3.88;1.45;;;;;;;;;;5066780;28;20052;-64
2021/08/23 01:21:25;;;;;;;1.75;1.38;;;;;;;;;;5067142;28;20032;-63
2021/08/23 01:23:52;;;;;;;2.33;1.55;;;;;;;;;;5068037;28;20354;-65
2021/08/23 01:26:23;;;;;;;2.65;1.60;;;;;;;;;;5066765;28;20105;-63
2021/08/23 01:29:16;;;;;;;2.83;1.50;;;;;;;;;;5086133;28;20024;-60
2021/08/23 01:31:52;;;;;;;1.85;1.55;;;;;;;;;;5082205;28;20334;-60
2021/08/23 01:34:19;;;;;;;5.15;1.90;;;;;;;;;;5086342;28;20052;-63
2021/08/23 01:36:44;;;;;;;5.30;1.95;;;;;;;;;;5069311;28;20233;-62
2021/08/23 01:39:10;;;;;;;4.75;1.88;;;;;;;;;;5067628;28;20037;-61
2021/08/23 01:41:35;;;;;;;2.85;1.80;;;;;;;;;;5065637;28;20798;-64
2021/08/23 01:44:00;;;;;;;3.58;1.75;;;;;;;;;;5067490;28;20029;-64
2021/08/23 01:46:31;;;;;;;3.38;1.35;;;;;;;;;;5067381;28;20028;-62
2021/08/23 01:49:00;;;;;;;2.40;1.50;;;;;;;;;;5069361;28;20040;-61
2021/08/23 01:51:26;;;;;;;2.78;1.65;;;;;;;;;;5067000;28;20074;-63
2021/08/23 01:53:52;;;;;;;4.55;1.98;;;;;;;;;;5066174;28;20317;-61
2021/08/23 01:56:17;;;;;;;2.70;1.63;;;;;;;;;;5065538;28;20032;-63
2021/08/23 01:58:42;;;;;;;2.20;1.52;;;;;;;;;;5085625;28;20102;-62
2021/08/23 02:01:08;;;;;;;2.63;1.65;;;;;;;;;;5072336;28;20031;-62
2021/08/23 02:03:33;;;;;;;2.35;1.73;;;;;;;;;;5067859;28;20017;-61
2021/08/23 02:05:58;;;;;;;2.00;1.38;;;;;;;;;;5077411;28;20031;-61
2021/08/23 02:08:23;;;;;;;5.07;1.80;;;;;;;;;;5086336;28;20711;-61
2021/08/23 02:10:49;;;;;;;2.78;1.70;;;;;;;;;;5065092;28;20024;-62
2021/08/23 02:13:14;;;;;;;2.38;1.67;;;;;;;;;;5066964;28;20051;-62
2021/08/23 02:15:39;;;;;;;4.80;2.08;;;;;;;;;;5067265;28;20033;-64
2021/08/23 02:18:05;;;;;;;2.55;1.73;;;;;;;;;;5078553;28;20060;-62
2021/08/23 02:20:30;;;;;;;4.38;2.15;;;;;;;;;;5085225;28;20082;-62
2021/08/23 02:22:56;;;;;;;4.82;2.13;;;;;;;;;;5078413;28;20033;-61
2021/08/23 02:25:22;;;;;;;3.40;1.67;;;;;;;;;;5068533;28;20035;-65
2021/08/23 02:27:52;;;;;;;1.98;1.70;;;;;;;;;;5059696;28;20028;-61
2021/08/23 02:30:18;;;;;;;3.22;1.80;;;;;;;;;;5067286;28;20452;-61
2021/08/23 02:32:44;;;;;;;3.58;1.80;;;;;;;;;;5073567;28;20067;-63
2021/08/23 02:35:09;;;;;;;5.35;1.70;;;;;;;;;;5065515;28;20126;-61
2021/08/23 02:37:35;;;;;;;4.45;1.90;;;;;;;;;;5066036;28;20513;-62
2021/08/23 02:40:00;;;;;;;2.97;1.63;;;;;;;;;;5066373;28;20032;-63
2021/08/23 02:42:26;;;;;;;2.40;1.80;;;;;;;;;;5066337;28;20734;-63
2021/08/23 02:44:51;;;;;;;3.97;1.77;;;;;;;;;;5068232;28;20436;-63
2021/08/23 02:47:16;;;;;;;3.47;1.90;;;;;;;;;;5066492;28;20020;-64
2021/08/23 02:49:42;;;;;;;4.25;1.70;;;;;;;;;;5069118;28;20074;-63
2021/08/23 02:52:07;;;;;;;4.40;2.03;;;;;;;;;;5071603;28;20024;-62
2021/08/23 02:54:32;;;;;;;2.88;1.65;;;;;;;;;;5069653;28;20078;-61
2021/08/23 02:56:58;;;;;;;2.65;1.80;;;;;;;;;;5069606;28;20042;-60
2021/08/23 02:59:23;;;;;;;3.63;1.95;;;;;;;;;;5069547;28;20531;-59
2021/08/23 03:01:48;;;;;;;4.38;2.70;;;;;;;;;;5087755;28;20028;-58
2021/08/23 03:04:14;;;;;;;3.78;2.25;;;;;;;;;;5090146;28;20020;-61
2021/08/23 03:06:39;;;;;;;3.13;2.00;;;;;;;;;;5072715;28;20030;-59
2021/08/23 03:09:04;;;;;;;4.30;2.30;;;;;;;;;;5072441;28;20031;-60
2021/08/23 03:11:30;;;;;;;4.15;2.25;;;;;;;;;;5073496;28;20067;-60
2021/08/23 03:13:56;;;;;;;4.22;1.77;;;;;;;;;;5073409;28;20752;-59
2021/08/23 03:16:21;;;;;;;5.55;1.90;;;;;;;;;;5073977;28;20090;-60
2021/08/23 03:18:47;;;;;;;3.58;1.95;;;;;;;;;;5073558;28;20029;-58
2021/08/23 03:21:12;;;;;;;2.20;1.80;;;;;;;;;;5072161;28;20047;-61
2021/08/23 03:23:38;;;;;;;3.53;1.70;;;;;;;;;;5073572;28;20107;-61
2021/08/23 03:26:04;;;;;;;2.00;1.80;;;;;;;;;;5073049;28;20017;-62
2021/08/23 03:28:30;;;;;;;2.13;1.77;;;;;;;;;;5075519;28;20027;-59
2021/08/23 03:30:55;;;;;;;2.95;1.67;;;;;;;;;;5071531;28;20020;-62
2021/08/23 03:33:21;;;;;;;5.88;1.50;;;;;;;;;;5071028;28;20056;-61
2021/08/23 03:35:46;;;;;;;3.22;1.92;;;;;;;;;;5080039;28;20024;-60
2021/08/23 03:38:12;;;;;;;4.75;2.03;;;;;;;;;;5089325;28;20031;-61
2021/08/23 03:40:38;;;;;;;2.45;1.88;;;;;;;;;;5070832;28;20111;-59
2021/08/23 03:43:03;;;;;;;4.55;2.00;;;;;;;;;;5073309;28;20470;-60
2021/08/23 03:45:29;;;;;;;3.35;1.83;;;;;;;;;;5069563;28;20036;-61
2021/08/23 03:47:54;;;;;;;3.15;2.10;;;;;;;;;;5072017;28;20025;-59
2021/08/23 03:50:19;;;;;;;4.15;1.80;;;;;;;;;;5073412;28;20017;-58
2021/08/23 03:52:45;;;;;;;5.70;1.80;;;;;;;;;;5072444;28;20073;-62
2021/08/23 03:55:10;;;;;;;2.67;1.90;;;;;;;;;;5071916;28;20103;-61
2021/08/23 03:57:36;;;;;;;3.40;1.90;;;;;;;;;;5073083;28;20036;-64
2021/08/23 04:00:06;;;;;;;2.00;1.67;;;;;;;;;;5070316;28;20386;-64
2021/08/23 04:02:32;;;;;;;2.08;1.60;;;;;;;;;;5073690;28;20031;-62
2021/08/23 04:04:58;;;;;;;3.25;1.90;;;;;;;;;;5075764;28;20020;-60
2021/08/23 04:07:23;;;;;;;2.05;1.80;;;;;;;;;;5092673;28;20028;-61
2021/08/23 04:09:49;;;;;;;4.03;2.10;;;;;;;;;;5081199;28;20047;-58
2021/08/23 04:12:16;;;;;;;3.17;2.05;;;;;;;;;;5070784;28;20025;-59
2021/08/23 04:14:42;;;;;;;2.85;2.00;;;;;;;;;;5071472;28;20542;-60
2021/08/23 04:17:07;;;;;;;2.80;1.85;;;;;;;;;;5071510;28;20028;-62
2021/08/23 04:19:32;;;;;;;4.10;2.15;;;;;;;;;;5072142;28;20025;-60
2021/08/23 04:21:58;;;;;;;5.10;2.20;;;;;;;;;;5072533;28;20099;-63
2021/08/23 04:24:23;;;;;;;3.88;2.20;;;;;;;;;;5088968;28;20031;-61
2021/08/23 04:26:49;;;;;;;5.30;2.33;;;;;;;;;;5092411;28;20050;-61
2021/08/23 04:29:15;;;;;;;3.28;2.25;;;;;;;;;;5071866;28;20474;-61
2021/08/23 04:31:41;;;;;;;4.80;2.28;;;;;;;;;;5071451;28;20028;-62
2021/08/23 04:34:06;;;;;;;5.57;2.38;;;;;;;;;;5066453;28;20559;-63
2021/08/23 04:36:32;;;;;;;4.28;2.17;;;;;;;;;;5050998;28;20028;-61
2021/08/23 04:38:57;;;;;;;3.53;2.30;;;;;;;;;;5064048;28;20400;-61
2021/08/23 04:41:22;;;;;;;4.97;2.17;;;;;;;;;;5070023;28;20617;-64
2021/08/23 04:43:48;;;;;;;3.72;2.20;;;;;;;;;;5069641;28;20393;-61
2021/08/23 04:46:26;;;;;;;5.80;2.17;;;;;;;;;;4838581;28;10000574;-64
2021/08/23 04:48:52;;;;;;;4.40;2.00;;;;;;;;;;5058228;28;20229;-63
2021/08/23 04:51:17;;;;;;;3.33;2.33;;;;;;;;;;5088487;28;20022;-60
2021/08/23 04:53:43;;;;;;;3.22;2.10;;;;;;;;;;5078860;28;20035;-61
2021/08/23 04:56:12;;;;;;;4.25;2.13;;;;;;;;;;5073065;28;20075;-64
2021/08/23 04:58:38;;;;;;;3.40;2.20;;;;;;;;;;5072313;28;20028;-64
2021/08/23 05:01:03;;;;;;;2.70;2.13;;;;;;;;;;5069011;28;20024;-63
2021/08/23 05:03:28;;;;;;;4.57;2.00;;;;;;;;;;5072800;28;20028;-64
2021/08/23 05:05:54;;;;;;;2.38;2.00;;;;;;;;;;5077856;28;20024;-65
2021/08/23 05:08:19;;;;;;;6.38;1.83;;;;;;;;;;5071169;28;20068;-61
2021/08/23 05:10:45;;;;;;;4.32;2.10;;;;;;;;;;5071082;28;20066;-62
2021/08/23 05:13:11;;;;;;;3.25;1.98;;;;;;;;;;5072133;28;20107;-66
2021/08/23 05:15:36;;;;;;;2.78;2.13;;;;;;;;;;5069790;28;20032;-64
2021/08/23 05:18:01;;;;;;;3.30;2.10;;;;;;;;;;5069963;28;20036;-65
2021/08/23 05:20:27;;;;;;;3.65;2.40;;;;;;;;;;5068393;28;20101;-64
2021/08/23 05:22:53;;;;;;;3.65;2.35;;;;;;;;;;5070799;28;20070;-65
2021/08/23 05:25:19;;;;;;;2.92;2.30;;;;;;;;;;5068727;28;20039;-68
2021/08/23 05:27:44;;;;;;;3.05;2.15;;;;;;;;;;5070585;28;20029;-63
2021/08/23 05:30:09;;;;;;;2.80;2.05;;;;;;;;;;5070098;28;20490;-66
2021/08/23 05:32:35;;;;;;;3.33;2.20;;;;;;;;;;5070279;28;20107;-62
2021/08/23 05:35:00;;;;;;;4.75;2.78;;;;;;;;;;5073404;28;20065;-62
2021/08/23 05:37:25;;;;;;;4.10;2.30;;;;;;;;;;5072808;28;20028;-62
2021/08/23 05:39:51;;;;;;;2.45;2.10;;;;;;;;;;5071166;28;20531;-62
2021/08/23 05:42:16;;;;;;;3.35;2.15;;;;;;;;;;5069204;28;20025;-66
2021/08/23 05:44:42;;;;;;;3.15;2.00;;;;;;;;;;5070602;28;20037;-64
2021/08/23 05:47:07;;;;;;;4.18;2.25;;;;;;;;;;5069919;28;20078;-64
2021/08/23 05:49:33;;;;;;;2.83;2.00;;;;;;;;;;5069993;28;20025;-60
2021/08/23 05:52:02;;;;;;;5.03;2.30;;;;;;;;;;5070350;28;20381;-63
2021/08/23 05:54:27;;;;;;;3.13;2.20;;;;;;;;;;5071349;28;20032;-62
2021/08/23 05:56:56;;;;;;;4.28;2.10;;;;;;;;;;5070976;28;20031;-61
2021/08/23 05:59:22;;;;;;;2.38;2.17;;;;;;;;;;5071359;28;20028;-64
2021/08/23 06:01:54;;;;;;;3.10;2.20;;;;;;;;;;5071136;28;20392;-59
2021/08/23 06:04:21;;;;;;;2.78;2.17;;;;;;;;;;5069497;28;20024;-62
2021/08/23 06:06:46;;;;;;;3.73;2.20;;;;;;;;;;5087427;28;20097;-60
2021/08/23 06:09:12;;;;;;;5.20;2.30;;;;;;;;;;5091476;28;20492;-63
2021/08/23 06:11:37;;;;;;;4.93;2.80;;;;;;;;;;5085182;28;20021;-60
2021/08/23 06:14:02;;;;;;;4.78;2.58;;;;;;;;;;5071529;28;20036;-63
2021/08/23 06:16:28;;;;;;;4.72;2.92;;;;;;;;;;5070886;28;20020;-61
2021/08/23 06:18:53;;;;;;;4.70;2.70;;;;;;;;;;5069978;28;20028;-62
2021/08/23 06:21:18;;;;;;;5.68;3.10;;;;;;;;;;5069713;28;20036;-61
2021/08/23 06:23:44;;;;;;;4.40;2.90;;;;;;;;;;5060158;28;20040;-62
2021/08/23 06:26:09;;;;;;;3.63;2.40;;;;;;;;;;5065335;28;20078;-67
2021/08/23 06:28:34;;;;;;;4.45;2.70;;;;;;;;;;5050790;28;20070;-64
2021/08/23 06:31:00;;;;;;;5.18;3.03;;;;;;;;;;5069672;28;20368;-65
2021/08/23 06:33:26;;;;;;;4.82;2.53;;;;;;;;;;5060160;28;20471;-63
2021/08/23 06:35:51;;;;;;;5.18;2.53;;;;;;;;;;5057255;28;20118;-66
2021/08/23 06:38:16;;;;;;;7.47;2.78;;;;;;;;;;5070341;28;20028;-64
2021/08/23 06:40:42;;;;;;;4.55;2.70;;;;;;;;;;5071755;28;20016;-65
2021/08/23 06:43:07;;;;;;;5.13;2.88;;;;;;;;;;5074055;28;20044;-61
2021/08/23 06:45:33;;;;;;;6.72;2.70;;;;;;;;;;5072822;28;20020;-66
2021/08/23 06:47:58;;;;;;;5.32;2.60;;;;;;;;;;5073191;28;20501;-68
2021/08/23 06:50:24;;;;;;;4.22;2.70;;;;;;;;;;5072422;28;20027;-64
2021/08/23 06:52:49;;;;;;;3.38;2.25;;;;;;;;;;5070242;28;20032;-63
2021/08/23 06:55:14;;;;;;;3.97;2.78;;;;;;;;;;5072829;28;20031;-63
2021/08/23 06:57:40;;;;;;;3.65;2.72;;;;;;;;;;5073619;28;20064;-62
2021/08/23 07:00:06;;;;;;;4.25;2.63;;;;;;;;;;5075504;28;20025;-62
2021/08/23 07:02:31;;;;;;;5.03;2.57;;;;;;;;;;5076636;28;20033;-62
2021/08/23 07:04:56;;;;;;;3.63;2.75;;;;;;;;;;5072009;28;20032;-61
2021/08/23 07:07:22;;;;;;;3.60;2.60;;;;;;;;;;5074032;28;20036;-66
2021/08/23 07:09:47;;;;;;;4.25;2.60;;;;;;;;;;5073203;28;20035;-66
2021/08/23 07:12:13;;;;;;;5.72;2.63;;;;;;;;;;5069911;28;20066;-64
2021/08/23 07:14:38;;;;;;;5.22;3.03;;;;;;;;;;5071520;28;20093;-66
2021/08/23 07:17:05;;;;;;;3.70;3.03;;;;;;;;;;5059874;28;20106;-64
2021/08/23 07:19:31;;;;;;;3.67;2.78;;;;;;;;;;5065092;28;20047;-65
2021/08/23 07:21:56;;;;;;;3.72;2.75;;;;;;;;;;5068585;28;20482;-64
2021/08/23 07:24:21;;;;;;;7.15;2.80;;;;;;;;;;5073572;28;20044;-63
2021/08/23 07:26:46;;;;;;;3.92;2.70;;;;;;;;;;5073788;28;20497;-61
2021/08/23 07:29:15;;;;;;;3.88;2.72;;;;;;;;;;5070084;28;20036;-67
2021/08/23 07:31:41;;;;;;;3.97;2.60;;;;;;;;;;5070043;28;20028;-65
2021/08/23 07:34:07;;;;;;;3.42;2.20;;;;;;;;;;4371583;28;10000824;-67
2021/08/23 07:36:33;;;;;;;4.72;2.65;;;;;;;;;;5070907;28;20060;-65
2021/08/23 07:38:59;;;;;;;3.90;3.30;;;;;;;;;;5068994;28;20043;-65
2021/08/23 07:41:24;;;;;;;6.82;3.70;;;;;;;;;;5061845;28;20020;-62
2021/08/23 07:43:50;;;;;;;7.20;3.67;;;;;;;;;;5061261;28;20067;-68
2021/08/23 07:46:15;;;;;;;6.10;3.67;;;;;;;;;;5060062;28;20029;-63
2021/08/23 07:48:42;;;;;;;6.25;3.17;;;;;;;;;;5067291;28;20095;-66
2021/08/23 07:51:08;;;;;;;4.63;3.50;;;;;;;;;;5059616;28;20469;-60
2021/08/23 07:53:33;;;;;;;6.57;2.97;;;;;;;;;;5067289;28;20032;-62
2021/08/23 07:55:58;;;;;;;3.88;3.38;;;;;;;;;;5063081;28;20081;-64
2021/08/23 07:58:24;;;;;;;6.22;3.60;;;;;;;;;;5059029;28;20029;-62
2021/08/23 08:00:49;;;;;;;6.78;3.47;;;;;;;;;;5047626;28;20513;-62
2021/08/23 08:03:14;;;;;;;4.35;3.20;;;;;;;;;;5059668;28;20024;-64
2021/08/23 08:05:40;;;;;;;7.40;3.60;;;;;;;;;;5055963;28;20119;-66
2021/08/23 08:08:07;;;;;;;6.05;3.95;;;;;;;;;;5068483;28;20028;-63
2021/08/23 08:10:33;;;;;;;6.75;3.55;;;;;;;;;;5067786;28;20024;-64
2021/08/23 08:12:59;;;;;;;4.03;3.67;;;;;;;;;;5069310;28;20115;-62
2021/08/23 08:15:24;;;;;;;5.65;3.53;;;;;;;;;;5068088;28;20428;-64
2021/08/23 08:17:49;;;;;;;6.22;3.35;;;;;;;;;;5071367;28;20470;-65
2021/08/23 08:20:15;;;;;;;3.63;3.08;;;;;;;;;;5065593;28;20056;-66
2021/08/23 08:22:40;;;;;;;4.72;3.00;;;;;;;;;;5059251;28;20729;-63
2021/08/23 08:25:06;;;;;;;5.82;3.22;;;;;;;;;;5065050;28;20062;-65
2021/08/23 08:27:32;;;;;;;7.30;3.40;;;;;;;;;;5066577;28;20032;-65
2021/08/23 08:29:57;;;;;;;4.20;3.10;;;;;;;;;;5067494;28;20297;-67
2021/08/23 08:32:23;;;;;;;4.57;3.15;;;;;;;;;;5067607;28;20545;-66
2021/08/23 08:34:49;;;;;;;4.88;3.30;;;;;;;;;;5068492;28;20048;-63
2021/08/23 08:37:14;;;;;;;3.63;3.30;;;;;;;;;;5066015;28;20094;-66
2021/08/23 08:39:40;;;;;;;4.97;3.55;;;;;;;;;;5066916;28;20036;-64
2021/08/23 08:42:06;;;;;;;5.00;3.38;;;;;;;;;;5063272;28;20111;-65
2021/08/23 08:44:33;;;;;;;5.57;3.25;;;;;;;;;;5063110;28;20024;-64
2021/08/23 08:46:59;;;;;;;5.90;3.80;;;;;;;;;;5062014;28;20688;-65
2021/08/23 08:49:26;;;;;;;4.57;3.38;;;;;;;;;;5064711;28;20043;-65
2021/08/23 08:51:52;;;;;;;6.93;3.50;;;;;;;;;;5065781;28;20465;-66
2021/08/23 08:54:18;;;;;;;8.85;3.88;;;;;;;;;;5062846;28;20524;-65
2021/08/23 08:56:43;;;;;;;4.97;3.28;;;;;;;;;;5061159;28;20033;-64
2021/08/23 08:59:08;;;;;;;7.38;3.40;;;;;;;;;;5062971;28;20024;-67
2021/08/23 09:01:34;;;;;;;4.15;3.75;;;;;;;;;;5062037;28;20033;-65
2021/08/23 09:04:04;;;;;;;4.68;3.78;;;;;;;;;;5065227;28;20123;-65
2021/08/23 09:06:40;;;;;;;7.70;3.85;;;;;;;;;;5081842;28;20024;-64
2021/08/23 09:09:13;;;;;;;7.35;4.10;;;;;;;;;;5081087;28;20111;-67
2021/08/23 09:11:42;;;;;;;4.25;3.85;;;;;;;;;;5067163;28;20098;-65
2021/08/23 09:14:09;;;;;;;5.72;3.92;;;;;;;;;;5068591;28;20766;-66
2021/08/23 09:16:39;;;;;;;4.68;4.18;;;;;;;;;;5067641;28;20040;-67
2021/08/23 09:19:06;;;;;;;4.95;4.20;;;;;;;;;;5067081;28;20032;-63
2021/08/23 09:21:38;;;;;;;;;;;;;;;;;;5067163;28;20116;-64
2021/08/23 09:24:07;;;;;;;4.40;4.00;;;;;;;;;;5066140;28;19912;-65
2021/08/23 09:26:34;;;;;;;4.40;4.00;;;;;;;;;;5065382;28;20052;-64
2021/08/23 09:29:03;;;;;;;4.88;3.95;;;;;;;;;;5068075;28;20066;-61
2021/08/23 09:31:31;;;;;;;4.80;4.20;;;;;;;;;;5066994;28;20044;-65
2021/08/23 09:33:59;;;;;;;6.25;4.20;;;;;;;;;;5066848;28;20102;-63
2021/08/23 09:36:26;;;;;;;5.15;4.65;;;;;;;;;;5065174;28;20016;-64
2021/08/23 09:39:12;;;;;;;5.72;4.70;;;;;;;;;;5069414;28;20028;-64
2021/08/23 09:41:41;;;;;;;7.18;5.13;;;;;;;;;;5065766;28;20120;-65
2021/08/23 09:44:14;;;;;;;5.65;4.97;;;;;;;;;;5062270;28;20025;-63
2021/08/23 09:46:42;;;;;;;8.38;5.47;;;;;;;;;;5066890;28;20023;-63
2021/08/23 09:49:09;;;;;;;5.88;5.28;;;;;;;;;;5066027;28;20114;-63
2021/08/23 09:51:40;;;;;;;6.47;5.15;;;;;;;;;;5065417;28;20077;-64
2021/08/23 09:54:12;;;;;;;5.70;5.20;;;;;;;;;;5067571;28;20487;-65
2021/08/23 09:56:49;;;;;;;6.28;5.68;;;;;;;;;;5066596;28;20066;-63
2021/08/23 09:59:17;;;;;;;5.78;5.28;;;;;;;;;;5064408;28;20028;-62
2021/08/23 10:01:45;;;;;;;6.38;5.78;;;;;;;;;;5066754;28;20104;-65
2021/08/23 10:04:11;;;;;;;6.35;5.75;;;;;;;;;;5066680;28;20107;-64
2021/08/23 10:06:38;;;;;;;6.35;5.80;;;;;;;;;;5065321;28;20037;-62
2021/08/23 10:09:05;;;;;;;8.25;5.70;;;;;;;;;;5066049;28;20067;-63
2021/08/23 10:11:32;;;;;;;6.43;5.53;;;;;;;;;;5063495;28;20050;-64
2021/08/23 10:13:59;;;;;;;7.10;5.22;;;;;;;;;;5065329;28;20560;-65
2021/08/23 10:16:25;;;;;;;7.72;5.75;;;;;;;;;;5053327;28;20115;-64
2021/08/23 10:18:51;;;;;;;6.10;5.45;;;;;;;;;;5060539;28;20034;-64
2021/08/23 10:21:17;;;;;;;6.20;5.33;;;;;;;;;;5066476;28;20051;-64
2021/08/23 10:23:43;;;;;;;6.22;5.60;;;;;;;;;;5072855;28;20277;-65
2021/08/23 10:26:09;;;;;;;7.65;6.00;;;;;;;;;;5069318;28;20039;-63
2021/08/23 10:28:36;;;;;;;7.93;6.10;;;;;;;;;;5066784;28;20033;-64
2021/08/23 10:31:09;;;;;;;7.15;5.57;;;;;;;;;;5068995;28;20078;-64
2021/08/23 10:33:37;;;;;;;6.00;5.30;;;;;;;;;;5070039;28;20044;-63
2021/08/23 10:36:11;;;;;;;6.57;5.63;;;;;;;;;;5068242;28;20032;-63
2021/08/23 10:38:37;;;;;;;6.15;5.55;;;;;;;;;;5066758;28;20474;-66
2021/08/23 10:41:17;;;;;;;7.47;5.78;;;;;;;;;;5069090;28;20032;-62
2021/08/23 10:43:53;;;;;;;6.57;5.30;;;;;;;;;;5070387;28;20028;-63
2021/08/23 10:46:25;;;;;;;6.13;5.43;;;;;;;;;;5071452;28;20032;-63
2021/08/23 10:48:51;;;;;;;5.97;5.10;;;;;;;;;;5077542;28;20028;-65
2021/08/23 10:51:33;;;;;;;6.05;5.45;;;;;;;;;;5063701;28;20032;-67
2021/08/23 10:53:59;;;;;;;6.68;5.78;;;;;;;;;;5067778;28;20478;-66
2021/08/23 10:56:34;;;;;;;7.33;6.63;;;;;;;;;;5049837;28;20518;-64
2021/08/23 10:59:11;;;;;;;7.40;6.70;;;;;;;;;;5067015;28;20451;-66
2021/08/23 11:01:37;;;;;;;7.45;6.60;;;;;;;;;;5067060;28;20020;-66
2021/08/23 11:04:07;;;;;;;7.05;6.35;;;;;;;;;;5076077;28;20031;-64
2021/08/23 11:06:32;;;;;;;7.20;6.28;;;;;;;;;;5079176;28;20028;-66
2021/08/23 11:09:12;;;;;;;6.78;6.18;;;;;;;;;;5068470;28;20024;-65
2021/08/23 11:11:39;;;;;;;9.15;6.90;;;;;;;;;;5063414;28;20028;-62
2021/08/23 11:14:19;;;;;;;12.05;7.00;;;;;;;;;;5063321;28;20020;-66
2021/08/23 11:16:54;;;;;;;8.98;7.35;;;;;;;;;;5066405;28;20025;-65
2021/08/23 11:19:24;;;;;;;9.68;7.03;;;;;;;;;;5060492;28;20594;-66
2021/08/23 11:21:57;;;;;;;7.93;7.10;;;;;;;;;;5066172;28;20033;-64
2021/08/23 11:24:30;;;;;;;7.75;6.97;;;;;;;;;;5067301;28;20021;-63
2021/08/23 11:27:00;;;;;;;8.18;7.28;;;;;;;;;;5067675;28;20416;-63
2021/08/23 11:29:26;;;;;;;8.07;7.10;;;;;;;;;;5067538;28;20036;-63
2021/08/23 11:32:02;;;;;;;8.57;6.80;;;;;;;;;;5069198;28;20081;-64
2021/08/23 11:34:28;;;;;;;7.90;7.10;;;;;;;;;;5070608;28;20047;-63
2021/08/23 11:37:01;;;;;;;8.43;7.50;;;;;;;;;;5064507;28;20047;-62
2021/08/23 11:39:31;;;;;;;8.90;7.70;;;;;;;;;;5062117;28;20546;-67
2021/08/23 11:41:58;;;;;;;8.52;7.72;;;;;;;;;;5064152;28;20119;-64
2021/08/23 11:44:23;;;;;;;12.48;9.57;;;;;;;;;;5062457;28;20116;-62
2021/08/23 11:47:00;;;;;;;12.25;10.73;;;;;;;;;;5066621;28;20423;-64
2021/08/23 11:49:33;;;;;;;13.27;11.57;;;;;;;;;;5063572;28;20047;-65
2021/08/23 11:52:11;;;;;;;13.68;12.05;;;;;;;;;;5067502;28;20071;-65
2021/08/23 11:54:38;;;;;;;13.05;11.65;;;;;;;;;;5071575;28;20527;-65
2021/08/23 11:57:05;;;;;;;16.45;13.05;;;;;;;;;;5068551;28;20503;-63
2021/08/23 11:59:31;;;;;;;16.15;13.23;;;;;;;;;;5065994;28;20638;-65
2021/08/23 12:01:56;;;;;;;14.23;12.52;;;;;;;;;;5059764;28;20036;-64
2021/08/23 12:04:23;;;;;;;13.38;11.90;;;;;;;;;;5054928;28;20033;-63
2021/08/23 12:06:55;;;;;;;;;;;;;;;;;;5055269;28;20486;-64
2021/08/23 12:09:20;;;;;;;4.30;3.90;;;;;;;;;;5061175;28;20592;-67
2021/08/23 12:11:46;;;;;;;4.95;4.43;;;;;;;;;;5065610;28;20031;-64
2021/08/23 12:14:19;;;;;;;3.72;3.40;;;;;;;;;;5068284;28;20366;-66
2021/08/23 12:16:45;;;;;;;4.82;3.72;;;;;;;;;;5066896;28;20420;-64
2021/08/23 12:19:12;;;;;;;3.67;3.25;;;;;;;;;;5061037;28;20151;-65
2021/08/23 12:21:38;;;;;;;;;;;;;;;;;;5065910;28;20025;-66
2021/08/23 12:24:08;;;;;;;2.67;2.47;;;;;;;;;;5065460;28;19916;-65
2021/08/23 12:26:36;;;;;;;2.83;2.53;;;;;;;;;;5065709;28;20028;-64
2021/08/23 12:29:10;;;;;;;3.10;2.80;;;;;;;;;;5066654;28;20577;-64
2021/08/23 12:31:38;;;;;;;2.25;2.00;;;;;;;;;;5061385;28;20032;-65
2021/08/23 12:34:14;;;;;;;2.53;2.33;;;;;;;;;;5056725;28;20095;-65
2021/08/23 12:36:39;;;;;;;4.30;3.20;;;;;;;;;;5065788;28;20047;-65
2021/08/23 12:39:05;;;;;;;4.07;3.67;;;;;;;;;;5059142;28;20032;-66
2021/08/23 12:41:32;;;;;;;4.53;3.67;;;;;;;;;;5063661;28;20055;-64
2021/08/23 12:43:57;;;;;;;4.05;3.33;;;;;;;;;;5064637;28;20389;-63
2021/08/23 12:46:22;;;;;;;3.90;3.50;;;;;;;;;;5068764;28;20082;-64
2021/08/23 12:48:48;;;;;;;6.13;4.22;;;;;;;;;;5060253;28;20028;-66
2021/08/23 12:51:14;;;;;;;4.47;4.03;;;;;;;;;;5061401;28;20024;-63
2021/08/23 12:53:44;;;;;;;4.72;4.30;;;;;;;;;;5066856;28;20028;-66
2021/08/23 12:56:10;;;;;;;4.68;4.10;;;;;;;;;;5061353;28;20052;-67
2021/08/23 12:58:35;;;;;;;4.53;4.03;;;;;;;;;;5062001;28;20143;-63
2021/08/23 13:01:01;;;;;;;4.47;4.07;;;;;;;;;;5061212;28;20355;-65
2021/08/23 13:03:26;;;;;;;4.65;4.20;;;;;;;;;;5055844;28;20077;-62
2021/08/23 13:05:52;;;;;;;4.75;3.78;;;;;;;;;;5059272;28;20513;-62
2021/08/23 13:08:17;;;;;;;4.60;4.10;;;;;;;;;;5059659;28;20036;-63
2021/08/23 13:10:44;;;;;;;5.22;4.53;;;;;;;;;;5062649;28;20024;-65
2021/08/23 13:13:23;;;;;;;5.53;4.75;;;;;;;;;;5063856;28;20111;-67
2021/08/23 13:15:49;;;;;;;5.15;4.40;;;;;;;;;;5057107;28;20043;-64
2021/08/23 13:18:14;;;;;;;5.40;4.85;;;;;;;;;;5064192;28;20032;-66
2021/08/23 13:20:40;;;;;;;4.82;4.40;;;;;;;;;;5067730;28;20020;-64
2021/08/23 13:23:07;;;;;;;5.28;4.78;;;;;;;;;;5067431;28;20031;-65
2021/08/23 13:25:33;;;;;;;;;;;;;;;;;;5087647;28;20082;-64
2021/08/23 13:28:01;;;;;;;5.72;4.18;;;;;;;;;;5085451;28;20343;-64
2021/08/23 13:30:26;;;;;;;6.32;4.82;;;;;;;;;;5068204;28;20091;-62
2021/08/23 13:32:52;;;;;;;6.90;4.78;;;;;;;;;;5060652;28;20046;-63
2021/08/23 13:35:17;;;;;;;5.88;4.90;;;;;;;;;;5056653;28;20119;-66
2021/08/23 13:37:42;;;;;;;8.43;4.80;;;;;;;;;;5047959;28;20428;-64
2021/08/23 13:40:08;;;;;;;4.82;4.38;;;;;;;;;;5044640;28;20139;-65
2021/08/23 13:42:36;;;;;;;4.90;4.38;;;;;;;;;;5054520;28;20092;-66
2021/08/23 13:45:02;;;;;;;5.10;4.60;;;;;;;;;;5060385;28;20081;-65
2021/08/23 13:47:27;;;;;;;4.78;4.13;;;;;;;;;;5053878;28;20037;-66
2021/08/23 13:49:53;;;;;;;5.15;4.10;;;;;;;;;;5059522;28;20044;-64
2021/08/23 13:52:18;;;;;;;4.18;3.78;;;;;;;;;;5066257;28;20075;-65
2021/08/23 13:54:43;;;;;;;5.35;3.90;;;;;;;;;;5066348;28;20028;-63
2021/08/23 13:57:09;;;;;;;4.30;3.90;;;;;;;;;;5065874;28;20450;-66
2021/08/23 13:59:34;;;;;;;4.85;3.90;;;;;;;;;;5062939;28;20024;-65
2021/08/23 14:01:59;;;;;;;5.32;3.78;;;;;;;;;;5064879;28;20776;-61
2021/08/23 14:04:25;;;;;;;3.85;3.55;;;;;;;;;;5055577;28;20596;-63
2021/08/23 14:06:50;;;;;;;3.63;3.10;;;;;;;;;;5060587;28;20093;-63
2021/08/23 14:09:16;;;;;;;3.33;3.03;;;;;;;;;;5065255;28;20382;-67
2021/08/23 14:11:44;;;;;;;3.50;3.20;;;;;;;;;;5060218;28;20032;-64
2021/08/23 14:14:09;;;;;;;3.30;3.00;;;;;;;;;;5067468;28;20040;-65
2021/08/23 14:16:35;;;;;;;4.15;3.22;;;;;;;;;;5066030;28;20017;-66
2021/08/23 14:19:00;;;;;;;3.85;3.00;;;;;;;;;;5066275;28;20029;-63
2021/08/23 14:21:26;;;;;;;3.97;3.00;;;;;;;;;;5064316;28;20024;-63
2021/08/23 14:23:51;;;;;;;4.10;3.70;;;;;;;;;;5066896;28;20036;-63
2021/08/23 14:26:18;;;;;;;3.90;3.60;;;;;;;;;;5069139;28;20029;-63
2021/08/23 14:28:44;;;;;;;4.65;3.80;;;;;;;;;;5057104;28;20602;-63
2021/08/23 14:31:09;;;;;;;4.45;3.50;;;;;;;;;;5059254;28;20020;-64
2021/08/23 14:33:35;;;;;;;7.13;3.92;;;;;;;;;;5062688;28;20132;-65
2021/08/23 14:36:01;;;;;;;4.55;3.28;;;;;;;;;;5060223;28;20043;-63
2021/08/23 14:38:26;;;;;;;4.22;3.83;;;;;;;;;;5070009;28;20020;-64
2021/08/23 14:40:52;;;;;;;4.15;3.75;;;;;;;;;;5060914;28;20028;-63